createdAt,value
2022-08-25T00:00:20.495Z,22.70
2022-08-25T00:02:55.749Z,22.68
2022-08-25T00:05:32.211Z,22.72
2022-08-25T00:08:01.523Z,22.75
2022-08-25T00:10:29.724Z,22.70
2022-08-25T00:12:57.904Z,22.64
2022-08-25T00:15:26.024Z,22.56
2022-08-25T00:17:54.049Z,22.58
2022-08-25T00:20:22.483Z,22.56
2022-08-25T00:22:52.015Z,22.52
2022-08-25T00:25:23.015Z,22.48
2022-08-25T00:27:51.591Z,22.45
2022-08-25T00:30:19.914Z,22.42
2022-08-25T00:32:55.033Z,22.38
2022-08-25T00:35:25.541Z,22.40
2022-08-25T00:37:54.917Z,22.46
2022-08-25T00:40:23.564Z,22.47
2022-08-25T00:42:51.708Z,22.44
2022-08-25T00:45:19.869Z,22.44
2022-08-25T00:47:48.049Z,22.44
2022-08-25T00:50:16.092Z,22.45
2022-08-25T00:52:45.965Z,22.45
2022-08-25T00:55:16.869Z,22.43
2022-08-25T00:57:47.231Z,22.42
2022-08-25T01:00:17.778Z,22.43
2022-08-25T01:02:47.864Z,22.44
2022-08-25T01:05:18.178Z,22.40
2022-08-25T01:07:46.224Z,22.41
2022-08-25T01:10:15.892Z,22.40
2022-08-25T01:12:43.998Z,22.38
2022-08-25T01:15:13.435Z,22.35
2022-08-25T01:17:47.157Z,22.33
2022-08-25T01:20:15.477Z,22.33
2022-08-25T01:22:44.879Z,22.32
2022-08-25T01:25:23.333Z,22.30
2022-08-25T01:27:51.477Z,22.28
2022-08-25T01:30:19.615Z,22.23
2022-08-25T01:32:47.625Z,22.15
2022-08-25T01:35:15.656Z,22.16
2022-08-25T01:37:45.064Z,22.17
2022-08-25T01:40:13.771Z,22.18
2022-08-25T01:42:47.786Z,22.13
2022-08-25T01:45:15.817Z,22.09
2022-08-25T01:47:44.889Z,22.06
2022-08-25T01:50:13.331Z,22.02
2022-08-25T01:52:51.905Z,22.00
2022-08-25T01:55:20.163Z,21.99
2022-08-25T01:57:48.228Z,21.98
2022-08-25T02:00:17.184Z,21.98
2022-08-25T02:02:47.275Z,21.98
2022-08-25T02:05:23.473Z,21.96
2022-08-25T02:07:53.691Z,21.94
2022-08-25T02:10:22.431Z,21.93
2022-08-25T02:12:51.749Z,21.90
2022-08-25T02:15:22.745Z,21.90
2022-08-25T02:17:50.733Z,21.93
2022-08-25T02:20:19.149Z,21.94
2022-08-25T02:22:56.652Z,21.98
2022-08-25T02:25:26.596Z,21.96
2022-08-25T02:27:55.008Z,21.96
2022-08-25T02:30:23.222Z,21.97
2022-08-25T02:32:53.919Z,21.95
2022-08-25T02:35:22.139Z,21.95
2022-08-25T02:37:51.718Z,21.93
2022-08-25T02:40:21.799Z,21.94
2022-08-25T02:42:51.423Z,21.94
2022-08-25T02:45:19.789Z,21.94
2022-08-25T02:47:48.903Z,21.91
2022-08-25T02:50:26.265Z,21.91
2022-08-25T02:52:55.576Z,21.90
2022-08-25T02:55:23.878Z,21.86
2022-08-25T02:57:53.339Z,21.81
2022-08-25T03:00:23.223Z,21.83
2022-08-25T03:02:51.506Z,21.78
2022-08-25T03:05:19.591Z,21.77
2022-08-25T03:07:47.622Z,21.77
2022-08-25T03:10:16.835Z,21.76
2022-08-25T03:12:45.486Z,21.76
2022-08-25T03:15:16.407Z,21.71
2022-08-25T03:17:45.650Z,21.71
2022-08-25T03:20:14.301Z,21.72
2022-08-25T03:22:42.588Z,21.73
2022-08-25T03:25:28.917Z,21.72
2022-08-25T03:27:56.965Z,21.70
2022-08-25T03:30:26.435Z,21.71
2022-08-25T03:32:54.528Z,21.68
2022-08-25T03:35:22.705Z,21.67
2022-08-25T03:37:51.197Z,21.64
2022-08-25T03:40:19.233Z,21.60
2022-08-25T03:42:50.647Z,21.55
2022-08-25T03:45:19.241Z,21.51
2022-08-25T03:47:49.070Z,21.47
2022-08-25T03:50:17.547Z,21.41
2022-08-25T03:52:45.748Z,21.32
2022-08-25T03:55:14.551Z,21.25
2022-08-25T03:57:42.691Z,21.20
2022-08-25T04:00:12.441Z,21.17
2022-08-25T04:02:40.652Z,21.15
2022-08-25T04:05:11.104Z,21.11
2022-08-25T04:07:39.183Z,21.12
2022-08-25T04:10:07.471Z,21.12
2022-08-25T04:12:36.018Z,21.11
2022-08-25T04:15:04.116Z,21.09
2022-08-25T04:17:32.396Z,21.08
2022-08-25T04:20:00.505Z,21.04
2022-08-25T04:22:31.138Z,21.00
2022-08-25T04:25:02.277Z,20.94
2022-08-25T04:27:30.301Z,20.89
2022-08-25T04:29:58.377Z,20.87
2022-08-25T04:32:26.422Z,20.86
2022-08-25T04:34:54.526Z,20.88
2022-08-25T04:37:22.570Z,20.88
2022-08-25T04:39:53.557Z,20.88
2022-08-25T04:42:21.725Z,20.88
2022-08-25T04:44:50.111Z,20.89
2022-08-25T04:47:20.227Z,20.87
2022-08-25T04:49:48.501Z,20.84
2022-08-25T04:52:16.567Z,20.85
2022-08-25T04:54:45.064Z,20.83
2022-08-25T04:57:16.754Z,20.82
2022-08-25T04:59:45.071Z,20.87
2022-08-25T05:02:13.089Z,20.95
2022-08-25T05:04:41.551Z,21.06
2022-08-25T05:07:09.577Z,21.14
2022-08-25T05:09:37.881Z,21.21
2022-08-25T05:12:07.771Z,21.25
2022-08-25T05:14:39.178Z,21.24
2022-08-25T05:17:08.033Z,21.25
2022-08-25T05:19:37.213Z,21.23
2022-08-25T05:22:05.320Z,21.23
2022-08-25T05:24:36.213Z,21.20
2022-08-25T05:27:04.360Z,21.16
2022-08-25T05:29:32.883Z,21.11
2022-08-25T05:32:02.407Z,21.08
2022-08-25T05:34:31.687Z,21.08
2022-08-25T05:37:03.277Z,21.04
2022-08-25T05:39:33.815Z,21.04
2022-08-25T05:42:01.914Z,21.08
2022-08-25T05:44:31.405Z,21.10
2022-08-25T05:46:59.618Z,21.17
2022-08-25T05:49:29.200Z,21.25
2022-08-25T05:51:57.223Z,21.34
2022-08-25T05:54:25.385Z,21.40
2022-08-25T05:56:53.489Z,21.47
2022-08-25T05:59:21.576Z,21.52
2022-08-25T06:02:06.953Z,21.54
2022-08-25T06:04:41.083Z,21.53
2022-08-25T06:07:09.544Z,21.56
2022-08-25T06:09:39.148Z,21.60
2022-08-25T06:12:09.081Z,21.62
2022-08-25T06:14:37.261Z,21.61
2022-08-25T06:17:05.356Z,21.61
2022-08-25T06:19:33.460Z,21.63
2022-08-25T06:22:06.633Z,21.69
2022-08-25T06:24:35.929Z,21.73
2022-08-25T06:27:04.065Z,21.74
2022-08-25T06:29:32.659Z,21.76
2022-08-25T06:32:00.967Z,21.79
2022-08-25T06:34:29.194Z,21.80
2022-08-25T06:36:57.320Z,21.80
2022-08-25T06:39:26.728Z,21.81
2022-08-25T06:41:54.821Z,21.87
2022-08-25T06:44:28.167Z,21.93
2022-08-25T06:46:56.321Z,22.01
2022-08-25T06:49:27.815Z,22.04
2022-08-25T06:51:55.974Z,22.06
2022-08-25T06:54:24.047Z,22.09
2022-08-25T06:56:55.694Z,22.09
2022-08-25T06:59:32.336Z,22.10
2022-08-25T07:02:00.817Z,22.09
2022-08-25T07:04:36.460Z,22.07
2022-08-25T07:07:06.362Z,22.02
2022-08-25T07:09:37.383Z,21.96
2022-08-25T07:12:09.486Z,21.86
2022-08-25T07:14:37.902Z,21.82
2022-08-25T07:17:10.476Z,21.81
2022-08-25T07:19:41.034Z,21.87
2022-08-25T07:22:09.513Z,21.91
2022-08-25T07:24:37.673Z,21.91
2022-08-25T07:27:06.182Z,21.95
2022-08-25T07:29:42.718Z,21.97
2022-08-25T07:32:10.986Z,21.97
2022-08-25T07:34:56.606Z,22.00
2022-08-25T07:37:48.761Z,21.93
2022-08-25T07:40:15.643Z,21.92
2022-08-25T07:42:43.874Z,21.93
2022-08-25T07:45:17.294Z,21.99
2022-08-25T07:47:51.710Z,22.04
2022-08-25T07:50:20.123Z,22.11
2022-08-25T07:52:53.895Z,22.18
2022-08-25T07:55:23.761Z,22.28
2022-08-25T07:58:10.999Z,22.28
2022-08-25T08:00:42.337Z,22.38
2022-08-25T08:03:19.763Z,22.51
2022-08-25T08:05:59.940Z,22.63
2022-08-25T08:08:28.095Z,22.81
2022-08-25T08:11:04.610Z,22.95
2022-08-25T08:13:36.671Z,22.98
2022-08-25T08:16:11.397Z,22.93
2022-08-25T08:18:42.604Z,23.09
2022-08-25T08:21:12.828Z,23.19
2022-08-25T08:23:58.755Z,23.35
2022-08-25T08:26:48.169Z,23.47
2022-08-25T08:29:16.458Z,23.53
2022-08-25T08:31:48.369Z,23.60
2022-08-25T08:34:17.055Z,23.73
2022-08-25T08:36:45.377Z,23.80
2022-08-25T08:39:13.584Z,23.80
2022-08-25T08:42:16.962Z,23.78
2022-08-25T08:45:03.683Z,23.83
2022-08-25T08:47:52.963Z,23.89
2022-08-25T08:50:30.750Z,23.92
2022-08-25T08:53:05.076Z,24.01
2022-08-25T08:55:37.428Z,24.11
2022-08-25T08:58:07.437Z,24.19
2022-08-25T09:00:40.430Z,24.27
2022-08-25T09:03:14.849Z,24.36
2022-08-25T09:05:47.963Z,24.41
2022-08-25T09:08:20.510Z,24.45
2022-08-25T09:10:59.149Z,24.54
2022-08-25T09:13:35.926Z,24.57
2022-08-25T09:16:33.734Z,24.69
2022-08-25T09:19:23.336Z,24.73
2022-08-25T09:21:54.705Z,24.73
2022-08-25T09:24:31.329Z,24.61
2022-08-25T09:27:05.712Z,24.70
2022-08-25T09:29:45.770Z,24.82
2022-08-25T09:32:13.995Z,24.95
2022-08-25T09:34:44.882Z,25.05
2022-08-25T09:37:12.999Z,25.10
2022-08-25T09:39:42.213Z,25.21
2022-08-25T09:42:10.336Z,25.22
2022-08-25T09:44:41.392Z,25.29
2022-08-25T09:47:16.506Z,25.42
2022-08-25T09:49:50.653Z,25.54
2022-08-25T09:52:32.998Z,25.71
2022-08-25T09:55:03.184Z,25.83
2022-08-25T09:57:35.830Z,25.88
2022-08-25T10:00:15.990Z,25.78
2022-08-25T10:02:44.513Z,25.59
2022-08-25T10:05:23.336Z,25.32
2022-08-25T10:07:54.952Z,24.98
2022-08-25T10:10:32.373Z,24.99
2022-08-25T10:13:06.348Z,24.96
2022-08-25T10:15:36.386Z,24.91
2022-08-25T10:18:25.814Z,24.82
2022-08-25T10:21:10.365Z,24.74
2022-08-25T10:23:44.816Z,24.89
2022-08-25T10:26:23.763Z,25.08
2022-08-25T10:29:03.393Z,25.33
2022-08-25T10:31:34.977Z,25.47
2022-08-25T10:34:09.736Z,25.60
2022-08-25T10:36:53.032Z,25.75
2022-08-25T10:39:36.308Z,25.59
2022-08-25T10:42:09.153Z,25.54
2022-08-25T10:44:57.407Z,25.53
2022-08-25T10:47:44.657Z,25.63
2022-08-25T10:50:16.236Z,25.85
2022-08-25T10:52:56.427Z,26.10
2022-08-25T10:55:27.221Z,26.22
2022-08-25T10:57:57.550Z,26.14
2022-08-25T11:00:31.561Z,25.81
2022-08-25T11:03:26.786Z,25.79
2022-08-25T11:05:57.161Z,25.76
2022-08-25T11:08:33.671Z,25.81
2022-08-25T11:11:03.690Z,25.84
2022-08-25T11:13:38.854Z,25.88
2022-08-25T11:16:17.400Z,26.09
2022-08-25T11:18:52.941Z,26.24
2022-08-25T11:21:23.200Z,26.46
2022-08-25T11:23:55.410Z,26.68
2022-08-25T11:26:36.597Z,26.55
2022-08-25T11:29:11.482Z,26.60
2022-08-25T11:31:44.447Z,26.63
2022-08-25T11:34:15.610Z,26.34
2022-08-25T11:36:51.385Z,26.22
2022-08-25T11:39:33.063Z,26.39
2022-08-25T11:42:07.928Z,26.50
2022-08-25T11:44:53.110Z,26.62
2022-08-25T11:47:54.789Z,26.65
2022-08-25T11:50:30.242Z,26.67
2022-08-25T11:52:59.212Z,26.63
2022-08-25T11:55:49.504Z,26.56
2022-08-25T11:58:30.737Z,26.60
2022-08-25T12:01:01.667Z,26.69
2022-08-25T12:03:54.299Z,26.78
2022-08-25T12:06:28.065Z,26.88
2022-08-25T12:09:17.233Z,26.93
2022-08-25T12:11:58.014Z,27.01
2022-08-25T12:14:40.112Z,27.23
2022-08-25T12:17:18.132Z,27.35
2022-08-25T12:19:51.821Z,27.58
2022-08-25T12:22:43.893Z,27.84
2022-08-25T12:25:17.784Z,28.13
2022-08-25T12:27:50.598Z,28.17
2022-08-25T12:30:21.406Z,27.96
2022-08-25T12:33:00.339Z,27.89
2022-08-25T12:35:30.839Z,27.74
2022-08-25T12:38:02.711Z,27.78
2022-08-25T12:40:36.127Z,27.53
2022-08-25T12:43:24.875Z,27.67
2022-08-25T12:45:54.031Z,27.66
2022-08-25T12:48:44.981Z,27.83
2022-08-25T12:51:17.817Z,28.15
2022-08-25T12:53:48.123Z,28.01
2022-08-25T12:56:25.455Z,27.54
2022-08-25T12:59:13.591Z,27.22
2022-08-25T13:02:03.215Z,27.48
2022-08-25T13:04:49.443Z,27.47
2022-08-25T13:07:23.967Z,27.29
2022-08-25T13:10:20.216Z,27.32
2022-08-25T13:12:51.553Z,27.41
2022-08-25T13:15:35.343Z,27.14
2022-08-25T13:18:23.499Z,27.15
2022-08-25T13:20:54.083Z,27.25
2022-08-25T13:23:26.376Z,27.13
2022-08-25T13:25:58.396Z,27.27
2022-08-25T13:28:29.789Z,27.33
2022-08-25T13:31:04.753Z,27.45
2022-08-25T13:33:33.409Z,27.51
2022-08-25T13:36:19.647Z,27.57
2022-08-25T13:38:48.819Z,27.58
2022-08-25T13:41:21.391Z,27.75
2022-08-25T13:44:02.635Z,27.84
2022-08-25T13:46:35.475Z,27.92
2022-08-25T13:49:05.765Z,27.90
2022-08-25T13:51:34.119Z,27.95
2022-08-25T13:54:03.327Z,28.02
2022-08-25T13:56:38.791Z,28.14
2022-08-25T13:59:24.579Z,28.19
2022-08-25T14:02:00.500Z,28.11
2022-08-25T14:04:34.410Z,28.22
2022-08-25T14:07:33.844Z,28.35
2022-08-25T14:10:05.758Z,28.48
2022-08-25T14:12:37.410Z,28.64
2022-08-25T14:15:14.143Z,28.89
2022-08-25T14:18:00.777Z,29.15
2022-08-25T14:20:31.219Z,29.49
2022-08-25T14:23:01.835Z,29.86
2022-08-25T14:25:31.461Z,30.28
2022-08-25T14:28:10.886Z,30.70
2022-08-25T14:30:45.986Z,30.85
2022-08-25T14:33:21.201Z,30.83
2022-08-25T14:35:50.809Z,30.88
2022-08-25T14:38:19.719Z,31.20
2022-08-25T14:40:50.293Z,30.83
2022-08-25T14:43:23.641Z,30.45
2022-08-25T14:45:52.390Z,30.34
2022-08-25T14:48:26.418Z,30.29
2022-08-25T14:50:55.077Z,30.42
2022-08-25T14:53:23.136Z,30.45
2022-08-25T14:55:53.926Z,30.51
2022-08-25T14:58:27.184Z,30.77
2022-08-25T15:00:55.316Z,30.87
2022-08-25T15:03:33.565Z,31.07
2022-08-25T15:06:01.996Z,31.17
2022-08-25T15:08:47.377Z,31.27
2022-08-25T15:11:15.960Z,31.40
2022-08-25T15:13:49.393Z,31.27
2022-08-25T15:16:22.330Z,31.13
2022-08-25T15:18:52.327Z,31.20
2022-08-25T15:21:21.793Z,31.32
2022-08-25T15:23:53.146Z,31.14
2022-08-25T15:26:24.630Z,31.06
2022-08-25T15:28:53.801Z,31.15
2022-08-25T15:31:24.027Z,31.10
2022-08-25T15:33:56.161Z,30.95
2022-08-25T15:36:25.550Z,31.02
2022-08-25T15:38:54.616Z,31.02
2022-08-25T15:41:27.805Z,30.99
2022-08-25T15:43:56.676Z,31.10
2022-08-25T15:46:26.039Z,31.04
2022-08-25T15:51:28.817Z,30.90
2022-08-25T15:53:56.973Z,30.74
2022-08-25T15:56:26.407Z,30.58
2022-08-25T15:58:55.460Z,30.35
2022-08-25T16:01:25.354Z,30.18
2022-08-25T16:03:53.534Z,30.11
2022-08-25T16:06:24.479Z,30.01
2022-08-25T16:08:54.455Z,29.93
2022-08-25T16:11:24.534Z,29.84
2022-08-25T16:13:52.860Z,29.70
2022-08-25T16:16:21.768Z,29.68
2022-08-25T16:18:52.451Z,29.41
2022-08-25T16:21:25.673Z,29.41
2022-08-25T16:23:57.898Z,29.22
2022-08-25T16:26:27.464Z,29.16
2022-08-25T16:28:55.504Z,29.07
2022-08-25T16:31:24.190Z,29.04
2022-08-25T16:33:54.814Z,29.01
2022-08-25T16:36:28.125Z,28.97
2022-08-25T16:38:56.459Z,29.24
2022-08-25T16:41:27.120Z,29.73
2022-08-25T16:43:55.772Z,30.03
2022-08-25T16:46:26.903Z,30.17
2022-08-25T16:48:55.700Z,30.01
2022-08-25T16:51:29.500Z,29.83
2022-08-25T16:54:22.051Z,29.58
2022-08-25T16:56:54.681Z,29.31
2022-08-25T16:59:23.784Z,29.11
2022-08-25T17:01:52.532Z,29.00
2022-08-25T17:04:20.766Z,28.99
2022-08-25T17:07:04.345Z,28.84
2022-08-25T17:09:34.764Z,28.87
2022-08-25T17:12:02.811Z,28.79
2022-08-25T17:14:30.849Z,28.51
2022-08-25T17:16:59.122Z,28.26
2022-08-25T17:19:27.870Z,28.13
2022-08-25T17:21:59.411Z,27.97
2022-08-25T17:24:29.510Z,28.01
2022-08-25T17:27:01.976Z,28.10
2022-08-25T17:29:30.410Z,28.18
2022-08-25T17:31:58.549Z,28.16
2022-08-25T17:34:27.524Z,27.86
2022-08-25T17:36:56.087Z,27.65
2022-08-25T17:39:26.617Z,27.71
2022-08-25T17:41:54.717Z,27.62
2022-08-25T17:44:25.362Z,27.50
2022-08-25T17:46:53.641Z,27.39
2022-08-25T17:49:23.060Z,27.25
2022-08-25T17:51:52.654Z,27.32
2022-08-25T17:54:20.708Z,27.45
2022-08-25T17:56:48.904Z,27.57
2022-08-25T17:59:18.860Z,27.32
2022-08-25T18:01:50.138Z,27.17
2022-08-25T18:04:23.724Z,26.96
2022-08-25T18:06:55.535Z,26.74
2022-08-25T18:09:23.643Z,26.50
2022-08-25T18:11:53.033Z,26.24
2022-08-25T18:14:25.280Z,26.00
2022-08-25T18:16:56.988Z,25.77
2022-08-25T18:19:25.033Z,25.51
2022-08-25T18:21:53.013Z,25.33
2022-08-25T18:24:23.531Z,25.15
2022-08-25T18:26:51.868Z,24.91
2022-08-25T18:29:20.751Z,24.61
2022-08-25T18:31:49.065Z,24.41
2022-08-25T18:34:18.940Z,24.22
2022-08-25T18:36:48.170Z,24.06
2022-08-25T18:39:36.823Z,23.90
2022-08-25T18:42:05.929Z,23.77
2022-08-25T18:44:36.710Z,23.66
2022-08-25T18:47:07.576Z,23.59
2022-08-25T18:49:38.430Z,23.45
2022-08-25T18:52:07.571Z,23.31
2022-08-25T18:54:36.126Z,23.22
2022-08-25T18:57:04.466Z,23.19
2022-08-25T18:59:37.965Z,23.13
2022-08-25T19:02:06.591Z,23.09
2022-08-25T19:04:34.795Z,23.07
2022-08-25T19:07:05.251Z,23.01
2022-08-25T19:09:36.275Z,23.01
2022-08-25T19:12:05.359Z,23.02
2022-08-25T19:14:33.403Z,23.00
2022-08-25T19:17:01.653Z,23.01
2022-08-25T19:19:29.694Z,23.00
2022-08-25T19:21:59.394Z,22.95
2022-08-25T19:24:29.809Z,22.87
2022-08-25T19:26:58.168Z,22.82
2022-08-25T19:29:26.525Z,22.75
2022-08-25T19:31:58.684Z,22.68
2022-08-25T19:34:30.650Z,22.62
2022-08-25T19:37:01.035Z,22.60
2022-08-25T19:39:30.764Z,22.52
2022-08-25T19:42:01.668Z,22.49
2022-08-25T19:44:31.480Z,22.43
2022-08-25T19:47:03.615Z,22.40
2022-08-25T19:49:37.155Z,22.34
2022-08-25T19:52:10.436Z,22.33
2022-08-25T19:54:44.459Z,22.32
2022-08-25T19:57:13.064Z,22.31
2022-08-25T19:59:56.138Z,22.26
2022-08-25T20:02:25.950Z,22.23
2022-08-25T20:04:59.290Z,22.21
2022-08-25T20:07:29.274Z,22.16
2022-08-25T20:10:00.826Z,22.11
2022-08-25T20:12:29.366Z,22.07
2022-08-25T20:14:57.857Z,22.03
2022-08-25T20:17:28.455Z,22.00
2022-08-25T20:19:57.741Z,21.97
2022-08-25T20:22:27.133Z,21.98
2022-08-25T20:24:58.503Z,21.92
2022-08-25T20:27:29.104Z,21.88
2022-08-25T20:29:57.213Z,21.84
2022-08-25T20:32:25.257Z,21.83
2022-08-25T20:34:55.610Z,21.81
2022-08-25T20:37:24.134Z,21.81
2022-08-25T20:39:55.295Z,21.80
2022-08-25T20:42:24.800Z,21.76
2022-08-25T20:44:53.615Z,21.78
2022-08-25T20:47:22.584Z,21.78
2022-08-25T20:49:50.624Z,21.73
2022-08-25T20:52:19.087Z,21.67
2022-08-25T20:54:50.516Z,21.67
2022-08-25T20:57:25.573Z,21.68
2022-08-25T20:59:56.104Z,21.65
2022-08-25T21:02:24.338Z,21.67
2022-08-25T21:04:52.472Z,21.63
2022-08-25T21:07:20.727Z,21.58
2022-08-25T21:09:51.819Z,21.55
2022-08-25T21:12:19.952Z,21.47
2022-08-25T21:14:48.242Z,21.47
2022-08-25T21:17:20.267Z,21.43
2022-08-25T21:22:21.791Z,21.33
2022-08-25T21:24:51.617Z,21.30
2022-08-25T21:27:19.730Z,21.29
2022-08-25T21:29:54.832Z,21.29
2022-08-25T21:32:25.510Z,21.29
2022-08-25T21:34:54.659Z,21.27
2022-08-25T21:37:22.897Z,21.25
2022-08-25T21:39:51.025Z,21.23
2022-08-25T21:42:19.323Z,21.21
2022-08-25T21:44:47.459Z,21.17
2022-08-25T21:47:15.858Z,21.12
2022-08-25T21:49:50.988Z,21.04
2022-08-25T21:52:19.199Z,21.00
2022-08-25T21:54:50.004Z,20.94
2022-08-25T21:57:23.801Z,20.90
2022-08-25T21:59:52.088Z,20.84
2022-08-25T22:02:22.618Z,20.76
2022-08-25T22:04:53.783Z,20.67
2022-08-25T22:07:22.578Z,20.61
2022-08-25T22:09:53.524Z,20.54
2022-08-25T22:12:21.538Z,20.49
2022-08-25T22:14:52.019Z,20.40
2022-08-25T22:17:21.035Z,20.36
2022-08-25T22:19:56.556Z,20.26
2022-08-25T22:22:25.086Z,20.18
2022-08-25T22:24:53.595Z,20.09
2022-08-25T22:27:23.615Z,20.05
2022-08-25T22:29:52.041Z,19.99
2022-08-25T22:32:21.040Z,19.84
2022-08-25T22:34:49.297Z,19.93
2022-08-25T22:37:18.905Z,19.93
2022-08-25T22:39:47.125Z,19.93
2022-08-25T22:42:15.403Z,19.89
2022-08-25T22:44:43.561Z,19.85
2022-08-25T22:47:12.442Z,19.84
2022-08-25T22:49:40.681Z,19.79
2022-08-25T22:52:09.433Z,19.78
2022-08-25T22:54:42.557Z,19.80
2022-08-25T22:57:11.254Z,19.82
2022-08-25T22:59:39.456Z,19.80
2022-08-25T23:02:07.526Z,19.73
2022-08-25T23:04:37.320Z,19.69
2022-08-25T23:07:11.351Z,19.63
2022-08-25T23:09:39.674Z,19.56
2022-08-25T23:12:09.825Z,19.53
2022-08-25T23:14:42.107Z,19.51
2022-08-25T23:17:12.336Z,19.49
2022-08-25T23:19:40.823Z,19.50
2022-08-25T23:22:10.960Z,19.55
2022-08-25T23:24:42.497Z,19.57
2022-08-25T23:27:13.395Z,19.60
2022-08-25T23:29:43.447Z,19.61
2022-08-25T23:32:14.358Z,19.62
2022-08-25T23:34:42.947Z,19.60
2022-08-25T23:37:15.720Z,19.61
2022-08-25T23:39:45.734Z,19.62
2022-08-25T23:42:15.263Z,19.61
2022-08-25T23:44:43.838Z,19.63
2022-08-25T23:47:12.909Z,19.66
2022-08-25T23:49:41.129Z,19.72
2022-08-25T23:52:09.119Z,19.71
2022-08-25T23:54:37.164Z,19.70
2022-08-25T23:57:06.989Z,19.64
2022-08-25T23:59:38.291Z,19.57
